createdAt,value
2018-05-04T00:00:59.410Z,7.33
2018-05-04T00:03:26.862Z,7.34
2018-05-04T00:05:54.309Z,7.38
2018-05-04T00:08:22.670Z,7.37
2018-05-04T00:10:50.137Z,7.16
2018-05-04T00:13:17.572Z,7.41
2018-05-04T00:15:45.007Z,7.32
2018-05-04T00:18:12.462Z,7.37
2018-05-04T00:20:40.882Z,7.39
2018-05-04T00:23:08.334Z,7.41
2018-05-04T00:25:35.757Z,7.56
2018-05-04T00:28:04.160Z,7.55
2018-05-04T00:30:31.577Z,7.61
2018-05-04T00:32:59.022Z,7.71
2018-05-04T00:35:27.458Z,7.46
2018-05-04T00:37:54.911Z,7.63
2018-05-04T00:40:22.330Z,7.61
2018-05-04T00:42:49.761Z,7.45
2018-05-04T00:45:17.173Z,7.40
2018-05-04T00:47:44.621Z,7.29
2018-05-04T00:50:12.038Z,7.26
2018-05-04T00:52:39.465Z,7.40
2018-05-04T00:55:06.921Z,7.55
2018-05-04T00:57:34.347Z,7.52
2018-05-04T01:00:01.803Z,7.53
2018-05-04T01:02:29.215Z,7.52
2018-05-04T01:04:56.673Z,7.50
2018-05-04T01:07:24.094Z,7.50
2018-05-04T01:09:51.550Z,7.81
2018-05-04T01:12:18.974Z,7.80
2018-05-04T01:14:46.430Z,7.79
2018-05-04T01:17:13.837Z,7.81
2018-05-04T01:19:41.281Z,7.78
2018-05-04T01:22:08.711Z,7.95
2018-05-04T01:24:36.151Z,7.82
2018-05-04T01:27:03.558Z,7.76
2018-05-04T01:29:31.007Z,7.55
2018-05-04T01:31:58.426Z,7.56
2018-05-04T01:34:25.875Z,7.69
2018-05-04T01:36:53.290Z,7.92
2018-05-04T01:39:20.753Z,7.93
2018-05-04T01:41:48.194Z,7.84
2018-05-04T01:44:15.718Z,7.98
2018-05-04T01:46:44.154Z,8.01
2018-05-04T01:49:13.521Z,7.62
2018-05-04T01:51:40.981Z,7.64
2018-05-04T01:54:08.409Z,7.66
2018-05-04T01:56:36.845Z,7.86
2018-05-04T01:59:04.266Z,7.72
2018-05-04T02:01:31.715Z,7.37
2018-05-04T02:04:00.101Z,6.89
2018-05-04T02:06:27.558Z,6.80
2018-05-04T02:08:54.984Z,6.72
2018-05-04T02:11:22.433Z,6.82
2018-05-04T02:13:51.794Z,7.16
2018-05-04T02:16:19.242Z,6.83
2018-05-04T02:18:47.610Z,7.14
2018-05-04T02:21:16.986Z,7.23
2018-05-04T02:23:44.436Z,7.33
2018-05-04T02:26:11.863Z,7.23
2018-05-04T02:28:39.326Z,7.20
2018-05-04T02:31:06.752Z,7.32
2018-05-04T02:33:34.197Z,7.05
2018-05-04T02:36:02.574Z,7.06
2018-05-04T02:38:30.036Z,7.20
2018-05-04T02:40:58.410Z,7.51
2018-05-04T02:43:27.797Z,7.43
2018-05-04T02:45:55.226Z,7.08
2018-05-04T02:48:23.677Z,6.84
2018-05-04T02:50:51.111Z,7.15
2018-05-04T02:53:18.573Z,7.17
2018-05-04T02:55:46.939Z,7.11
2018-05-04T02:58:14.404Z,7.27
2018-05-04T03:00:42.770Z,6.94
2018-05-04T03:03:10.240Z,6.68
2018-05-04T03:05:37.665Z,6.66
2018-05-04T03:08:05.084Z,7.13
2018-05-04T03:10:32.537Z,7.01
2018-05-04T03:12:59.970Z,6.80
2018-05-04T03:15:27.422Z,6.75
2018-05-04T03:17:54.841Z,6.86
2018-05-04T03:20:22.296Z,6.95
2018-05-04T03:22:49.730Z,6.80
2018-05-04T03:25:17.177Z,6.55
2018-05-04T03:27:44.604Z,6.60
2018-05-04T03:30:12.075Z,6.73
2018-05-04T03:32:39.489Z,6.43
2018-05-04T03:35:06.937Z,6.26
2018-05-04T03:37:34.361Z,6.23
2018-05-04T03:40:01.806Z,6.30
2018-05-04T03:42:29.225Z,6.78
2018-05-04T03:44:57.629Z,6.91
2018-05-04T03:47:25.084Z,6.85
2018-05-04T03:49:52.511Z,6.70
2018-05-04T03:52:19.950Z,6.46
2018-05-04T03:54:47.380Z,6.25
2018-05-04T03:57:30.427Z,6.27
2018-05-04T04:00:09.517Z,6.41
2018-05-04T04:02:48.698Z,6.55
2018-05-04T04:05:17.098Z,6.40
2018-05-04T04:07:44.538Z,6.30
2018-05-04T04:10:11.971Z,6.65
2018-05-04T04:12:39.473Z,6.78
2018-05-04T04:15:06.859Z,7.15
2018-05-04T04:17:34.314Z,7.33
2018-05-04T04:20:01.734Z,7.29
2018-05-04T04:22:29.218Z,7.39
2018-05-04T04:24:56.648Z,7.61
2018-05-04T04:27:24.070Z,7.54
2018-05-04T04:29:51.514Z,7.52
2018-05-04T04:32:18.939Z,7.42
2018-05-04T04:34:47.327Z,7.43
2018-05-04T04:37:14.737Z,7.66
2018-05-04T04:39:42.189Z,7.94
2018-05-04T04:42:09.615Z,8.27
2018-05-04T04:44:37.051Z,8.56
2018-05-04T04:47:04.458Z,8.47
2018-05-04T04:49:31.904Z,8.24
2018-05-04T04:51:59.320Z,8.20
2018-05-04T04:54:26.757Z,8.19
2018-05-04T04:56:54.186Z,8.25
2018-05-04T04:59:21.622Z,8.39
2018-05-04T05:01:49.235Z,8.51
2018-05-04T05:04:16.600Z,8.74
2018-05-04T05:06:44.018Z,8.96
2018-05-04T05:09:11.525Z,9.02
2018-05-04T05:11:38.929Z,8.98
2018-05-04T05:14:06.345Z,9.14
2018-05-04T05:16:33.902Z,9.28
2018-05-04T05:19:01.315Z,9.22
2018-05-04T05:21:28.754Z,9.31
2018-05-04T05:23:56.257Z,9.37
2018-05-04T05:26:23.711Z,9.58
2018-05-04T05:28:51.176Z,9.74
2018-05-04T05:31:18.613Z,9.77
2018-05-04T05:33:46.035Z,9.91
2018-05-04T05:36:13.473Z,10.17
2018-05-04T05:38:40.898Z,10.25
2018-05-04T05:41:08.333Z,10.40
2018-05-04T05:43:35.759Z,10.65
2018-05-04T05:46:03.200Z,10.87
2018-05-04T05:48:30.612Z,11.07
2018-05-04T05:50:58.090Z,11.12
2018-05-04T05:53:25.496Z,11.04
2018-05-04T05:55:52.990Z,11.02
2018-05-04T05:58:20.397Z,11.18
2018-05-04T06:00:47.810Z,11.28
2018-05-04T06:03:15.249Z,11.57
2018-05-04T06:05:42.714Z,11.58
2018-05-04T06:08:10.180Z,11.72
2018-05-04T06:10:37.592Z,11.97
2018-05-04T06:13:05.033Z,12.27
2018-05-04T06:15:32.459Z,12.22
2018-05-04T06:17:59.903Z,12.13
2018-05-04T06:20:27.313Z,12.40
2018-05-04T06:22:54.761Z,12.53
2018-05-04T06:25:22.180Z,12.78
2018-05-04T06:27:49.625Z,12.72
2018-05-04T06:30:17.037Z,12.49
2018-05-04T06:32:44.477Z,12.16
2018-05-04T06:35:11.889Z,12.33
2018-05-04T06:37:39.312Z,12.71
2018-05-04T06:40:06.749Z,12.96
2018-05-04T06:42:34.165Z,12.46
2018-05-04T06:45:01.621Z,12.48
2018-05-04T06:47:29.029Z,12.76
2018-05-04T06:49:56.474Z,12.70
2018-05-04T06:52:23.889Z,12.81
2018-05-04T06:54:51.330Z,13.34
2018-05-04T06:57:18.741Z,13.36
2018-05-04T06:59:46.193Z,13.38
2018-05-04T07:02:13.710Z,13.66
2018-05-04T07:04:41.169Z,13.88
2018-05-04T07:07:08.627Z,13.78
2018-05-04T07:09:36.037Z,13.68
2018-05-04T07:12:03.541Z,14.16
2018-05-04T07:14:30.958Z,14.98
2018-05-04T07:16:58.414Z,14.76
2018-05-04T07:19:25.829Z,14.64
2018-05-04T07:21:53.273Z,14.56
2018-05-04T07:24:20.681Z,14.64
2018-05-04T07:26:48.139Z,14.59
2018-05-04T07:29:15.563Z,14.17
2018-05-04T07:31:43.018Z,14.63
2018-05-04T07:34:10.438Z,15.56
2018-05-04T07:36:37.883Z,15.67
2018-05-04T07:39:06.200Z,16.17
2018-05-04T07:41:33.635Z,16.21
2018-05-04T07:44:01.050Z,15.18
2018-05-04T07:46:28.501Z,15.38
2018-05-04T07:48:55.998Z,15.27
2018-05-04T07:51:23.462Z,15.36
2018-05-04T07:53:50.901Z,14.89
2018-05-04T07:56:42.264Z,14.51
2018-05-04T07:59:09.673Z,14.32
2018-05-04T08:01:37.134Z,14.44
2018-05-04T08:04:04.574Z,14.63
2018-05-04T08:06:31.986Z,14.49
2018-05-04T08:08:59.425Z,14.35
2018-05-04T08:11:26.852Z,14.38
2018-05-04T08:13:54.293Z,14.07
2018-05-04T08:16:22.666Z,13.08
2018-05-04T08:18:50.109Z,13.22
2018-05-04T08:21:17.535Z,13.58
2018-05-04T08:23:44.969Z,13.72
2018-05-04T08:26:12.393Z,13.97
2018-05-04T08:28:39.855Z,13.75
2018-05-04T08:31:07.269Z,13.47
2018-05-04T08:33:35.772Z,13.19
2018-05-04T08:36:03.145Z,13.58
2018-05-04T08:38:30.602Z,13.60
2018-05-04T08:40:58.020Z,13.75
2018-05-04T08:43:26.459Z,14.26
2018-05-04T08:45:53.931Z,14.20
2018-05-04T08:48:21.460Z,14.43
2018-05-04T08:50:48.809Z,13.60
2018-05-04T08:53:17.185Z,13.67
2018-05-04T08:55:44.633Z,13.98
2018-05-04T08:58:13.017Z,14.78
2018-05-04T09:00:40.452Z,15.07
2018-05-04T09:03:08.882Z,15.45
2018-05-04T09:05:36.343Z,14.53
2018-05-04T09:08:03.833Z,14.69
2018-05-04T09:10:31.273Z,15.13
2018-05-04T09:12:59.597Z,14.88
2018-05-04T09:15:27.030Z,14.97
2018-05-04T09:17:54.442Z,15.23
2018-05-04T09:20:21.873Z,15.26
2018-05-04T09:22:49.287Z,15.13
2018-05-04T09:25:16.783Z,15.42
2018-05-04T09:27:44.181Z,15.60
2018-05-04T09:30:11.623Z,15.26
2018-05-04T09:32:39.038Z,15.31
2018-05-04T09:35:06.474Z,15.44
2018-05-04T09:37:34.061Z,15.56
2018-05-04T09:40:01.490Z,15.33
2018-05-04T09:42:28.917Z,15.05
2018-05-04T09:44:56.338Z,14.87
2018-05-04T09:47:23.780Z,14.90
2018-05-04T09:49:51.282Z,15.10
2018-05-04T09:52:18.814Z,15.16
2018-05-04T09:54:46.274Z,15.12
2018-05-04T09:57:13.706Z,15.14
2018-05-04T09:59:41.142Z,15.13
2018-05-04T10:02:08.578Z,15.77
2018-05-04T10:04:36.905Z,15.63
2018-05-04T10:07:04.351Z,15.23
2018-05-04T10:09:31.762Z,15.68
2018-05-04T10:11:59.175Z,15.63
2018-05-04T10:14:26.613Z,15.70
2018-05-04T10:16:54.025Z,16.17
2018-05-04T10:19:21.461Z,15.67
2018-05-04T10:21:49.040Z,16.05
2018-05-04T10:24:16.469Z,16.04
2018-05-04T10:26:44.054Z,16.35
2018-05-04T10:29:11.493Z,15.96
2018-05-04T10:31:38.901Z,15.83
2018-05-04T10:34:06.338Z,15.47
2018-05-04T10:36:35.690Z,15.90
2018-05-04T10:39:04.134Z,16.21
2018-05-04T10:41:31.523Z,16.09
2018-05-04T10:43:58.958Z,16.66
2018-05-04T10:46:26.378Z,16.53
2018-05-04T10:51:45.834Z,16.25
2018-05-04T10:54:15.271Z,16.25
2018-05-04T10:56:42.669Z,16.08
2018-05-04T10:59:11.101Z,16.38
2018-05-04T11:01:38.533Z,16.02
2018-05-04T11:04:07.953Z,16.19
2018-05-04T11:06:35.389Z,16.04
2018-05-04T11:09:03.715Z,15.96
2018-05-04T11:11:31.158Z,16.07
2018-05-04T11:13:58.614Z,16.05
2018-05-04T11:16:27.080Z,16.03
2018-05-04T11:18:56.468Z,16.22
2018-05-04T11:21:23.902Z,16.41
2018-05-04T11:23:51.315Z,15.06
2018-05-04T11:26:18.765Z,15.25
2018-05-04T11:28:46.194Z,15.47
2018-05-04T11:31:13.780Z,15.50
2018-05-04T11:33:41.198Z,14.99
2018-05-04T11:36:10.670Z,15.43
2018-05-04T11:38:38.081Z,15.78
2018-05-04T11:41:06.540Z,15.95
2018-05-04T11:43:37.886Z,15.87
2018-05-04T11:46:05.381Z,16.13
2018-05-04T11:48:32.800Z,16.37
2018-05-04T11:51:07.625Z,16.33
2018-05-04T11:53:35.036Z,16.31
2018-05-04T11:56:06.365Z,16.50
2018-05-04T11:58:33.860Z,17.03
2018-05-04T12:01:01.388Z,16.66
2018-05-04T12:03:28.797Z,17.30
2018-05-04T12:05:56.237Z,16.95
2018-05-04T12:08:23.686Z,16.89
2018-05-04T12:10:55.140Z,16.73
2018-05-04T12:13:22.510Z,16.57
2018-05-04T12:15:49.927Z,16.96
2018-05-04T12:18:18.281Z,16.79
2018-05-04T12:20:45.850Z,16.66
2018-05-04T12:23:13.410Z,16.36
2018-05-04T12:25:40.833Z,16.85
2018-05-04T12:28:08.265Z,16.68
2018-05-04T12:30:35.684Z,16.87
2018-05-04T12:33:03.237Z,16.99
2018-05-04T12:35:30.652Z,16.64
2018-05-04T12:37:58.078Z,16.01
2018-05-04T12:40:25.493Z,16.54
2018-05-04T12:42:53.985Z,16.86
2018-05-04T12:45:21.410Z,16.93
2018-05-04T12:47:49.005Z,16.97
2018-05-04T12:50:16.417Z,16.76
2018-05-04T12:52:43.834Z,17.12
2018-05-04T12:55:11.266Z,16.67
2018-05-04T12:57:38.689Z,17.15
2018-05-04T13:00:06.132Z,17.43
2018-05-04T13:02:33.554Z,17.81
2018-05-04T13:05:01.037Z,17.37
2018-05-04T13:07:28.457Z,17.70
2018-05-04T13:09:55.894Z,17.57
2018-05-04T13:12:23.317Z,17.22
2018-05-04T13:14:50.754Z,17.47
2018-05-04T13:17:18.227Z,17.75
2018-05-04T13:19:46.542Z,17.82
2018-05-04T13:22:13.982Z,17.77
2018-05-04T13:24:41.414Z,17.72
2018-05-04T13:27:08.830Z,17.54
2018-05-04T13:29:36.270Z,17.89
2018-05-04T13:32:03.674Z,18.80
2018-05-04T13:34:32.226Z,18.95
2018-05-04T13:36:59.666Z,19.53
2018-05-04T13:39:27.091Z,20.42
2018-05-04T13:41:54.589Z,21.03
2018-05-04T13:44:22.022Z,22.45
2018-05-04T13:46:49.493Z,23.44
2018-05-04T13:49:16.914Z,23.20
2018-05-04T13:51:45.247Z,25.29
2018-05-04T13:54:12.686Z,26.42
2018-05-04T13:56:40.134Z,27.30
2018-05-04T13:59:07.542Z,28.30
2018-05-04T14:01:34.978Z,28.50
2018-05-04T14:04:02.395Z,27.59
2018-05-04T14:06:29.835Z,28.82
2018-05-04T14:08:58.210Z,29.35
2018-05-04T14:11:25.645Z,29.00
2018-05-04T14:13:53.764Z,30.69
2018-05-04T14:16:21.197Z,30.51
2018-05-04T14:18:48.683Z,30.65
2018-05-04T14:21:17.072Z,31.82
2018-05-04T14:23:44.520Z,31.40
2018-05-04T14:26:11.973Z,30.84
2018-05-04T14:28:40.350Z,29.12
2018-05-04T14:31:07.765Z,27.99
2018-05-04T14:33:35.212Z,28.62
2018-05-04T14:36:02.642Z,29.32
2018-05-04T14:38:30.077Z,28.16
2018-05-04T14:40:57.521Z,29.87
2018-05-04T14:43:24.997Z,32.41
2018-05-04T14:45:53.333Z,33.91
2018-05-04T14:48:20.773Z,35.16
2018-05-04T14:50:48.197Z,36.43
2018-05-04T14:53:16.669Z,35.21
2018-05-04T14:55:44.085Z,35.30
2018-05-04T14:58:11.522Z,35.85
2018-05-04T15:00:39.044Z,36.77
2018-05-04T15:03:07.507Z,37.50
2018-05-04T15:05:34.919Z,38.07
2018-05-04T15:08:02.365Z,39.60
2018-05-04T15:10:29.777Z,37.24
2018-05-04T15:12:57.186Z,34.47
2018-05-04T15:15:24.625Z,38.43
2018-05-04T15:17:52.022Z,38.40
2018-05-04T15:20:19.457Z,41.28
2018-05-04T15:22:46.877Z,39.22
2018-05-04T15:25:14.309Z,40.20
2018-05-04T15:27:41.717Z,39.49
2018-05-04T15:30:09.239Z,40.79
2018-05-04T15:32:36.649Z,40.02
2018-05-04T15:35:05.084Z,38.78
2018-05-04T15:37:32.498Z,40.61
2018-05-04T15:40:00.071Z,42.52
2018-05-04T15:42:28.424Z,43.13
2018-05-04T15:44:55.853Z,43.75
2018-05-04T15:47:23.272Z,42.53
2018-05-04T15:49:50.831Z,42.59
2018-05-04T15:52:20.153Z,42.38
2018-05-04T15:54:47.595Z,41.51
2018-05-04T15:57:15.006Z,40.97
2018-05-04T15:59:42.423Z,43.03
2018-05-04T16:02:09.854Z,44.36
2018-05-04T16:04:37.723Z,41.90
2018-05-04T16:07:05.179Z,41.95
2018-05-04T16:09:34.367Z,41.58
2018-05-04T16:12:01.818Z,42.36
2018-05-04T16:14:30.288Z,40.12
2018-05-04T16:16:57.724Z,40.74
2018-05-04T16:19:25.145Z,41.59
2018-05-04T16:21:52.604Z,41.16
2018-05-04T16:24:20.090Z,40.08
2018-05-04T16:26:47.518Z,39.85
2018-05-04T16:29:14.934Z,40.22
2018-05-04T16:31:42.392Z,37.53
2018-05-04T16:34:09.809Z,36.75
2018-05-04T16:36:44.143Z,35.71
2018-05-04T16:39:11.614Z,37.29
2018-05-04T16:41:39.087Z,37.34
2018-05-04T16:47:14.168Z,38.57
2018-05-04T16:49:41.602Z,37.00
2018-05-04T16:52:11.416Z,35.02
2018-05-04T16:54:38.867Z,34.12
2018-05-04T16:57:06.283Z,35.14
2018-05-04T16:59:39.768Z,34.24
2018-05-04T17:02:07.203Z,34.71
2018-05-04T17:22:33.824Z,16.68
2018-05-04T17:25:01.275Z,16.59
2018-05-04T17:27:29.705Z,16.30
2018-05-04T17:29:57.158Z,16.12
2018-05-04T17:32:24.578Z,16.36
2018-05-04T17:52:32.333Z,15.11
2018-05-04T17:54:59.914Z,15.04
2018-05-04T17:57:27.335Z,15.12
2018-05-04T17:59:55.724Z,15.15
2018-05-04T18:02:23.164Z,14.90
2018-05-04T18:04:50.619Z,14.77
2018-05-04T18:07:19.874Z,14.65
2018-05-04T18:09:47.315Z,14.60
2018-05-04T18:15:08.068Z,14.82
2018-05-04T18:17:51.973Z,14.68
2018-05-04T18:23:12.241Z,14.67
2018-05-04T18:34:28.977Z,14.18
2018-05-04T18:36:56.501Z,14.14
2018-05-04T18:39:24.444Z,14.14
2018-05-04T18:41:51.885Z,14.01
2018-05-04T18:44:20.031Z,14.03
2018-05-04T18:46:47.491Z,14.05
2018-05-04T18:52:07.399Z,13.84
2018-05-04T18:54:34.822Z,13.83
2018-05-04T18:57:02.307Z,13.75
2018-05-04T19:53:17.537Z,12.78
2018-05-04T19:55:44.977Z,12.69
2018-05-04T19:58:12.407Z,12.60
2018-05-04T20:00:39.843Z,12.39
2018-05-04T20:03:08.273Z,12.31
2018-05-04T20:05:35.710Z,12.15
2018-05-04T20:08:03.128Z,12.08
2018-05-04T20:10:30.613Z,12.21
2018-05-04T20:12:59.081Z,12.26
2018-05-04T20:15:26.537Z,12.28
2018-05-04T20:17:54.941Z,12.23
2018-05-04T20:20:22.385Z,12.25
2018-05-04T20:22:56.156Z,12.25
2018-05-04T20:28:24.286Z,12.02
2018-05-04T20:30:51.758Z,11.99
2018-05-04T20:33:19.173Z,11.97
2018-05-04T20:35:46.632Z,11.96
2018-05-04T20:38:14.066Z,11.87
2018-05-04T20:40:41.482Z,11.98
2018-05-04T20:43:08.929Z,11.90
2018-05-04T20:45:36.346Z,11.70
2018-05-04T20:48:03.785Z,11.65
2018-05-04T20:50:31.201Z,11.71
2018-05-04T20:52:58.657Z,11.62
2018-05-04T20:55:26.451Z,11.55
2018-05-04T20:57:57.307Z,11.48
2018-05-04T21:00:24.714Z,11.38
2018-05-04T21:02:53.062Z,11.34
2018-05-04T21:05:20.475Z,11.39
2018-05-04T21:07:47.919Z,11.28
2018-05-04T21:10:15.327Z,11.28
2018-05-04T21:12:42.769Z,11.34
2018-05-04T21:15:10.187Z,11.39
2018-05-04T21:17:37.642Z,11.38
2018-05-04T21:20:05.093Z,11.36
2018-05-04T21:22:32.558Z,11.32
2018-05-04T21:25:01.878Z,11.11
2018-05-04T21:27:29.296Z,11.05
2018-05-04T21:29:56.738Z,10.92
2018-05-04T21:32:24.155Z,10.92
2018-05-04T21:34:51.599Z,10.88
2018-05-04T21:37:19.010Z,10.79
2018-05-04T21:39:46.445Z,10.77
2018-05-04T21:42:13.857Z,10.69
2018-05-04T21:44:41.349Z,10.55
2018-05-04T21:47:08.717Z,10.58
2018-05-04T21:49:36.162Z,10.53
2018-05-04T21:52:04.493Z,10.51
2018-05-04T21:54:31.987Z,10.48
2018-05-04T21:56:59.350Z,10.67
2018-05-04T21:59:26.790Z,10.63
2018-05-04T22:01:54.197Z,10.80
2018-05-04T22:04:21.643Z,10.61
2018-05-04T22:06:49.061Z,10.63
2018-05-04T22:09:16.501Z,10.65
2018-05-04T22:11:43.913Z,10.50
2018-05-04T22:14:11.326Z,10.37
2018-05-04T22:16:38.767Z,10.30
2018-05-04T22:19:06.178Z,10.29
2018-05-04T22:21:33.629Z,10.26
2018-05-04T22:24:01.942Z,10.12
2018-05-04T22:26:29.413Z,9.98
2018-05-04T22:29:00.370Z,10.03
2018-05-04T22:31:29.668Z,9.92
2018-05-04T22:33:58.006Z,9.92
2018-05-04T22:36:25.453Z,10.07
2018-05-04T22:38:53.406Z,9.95
2018-05-04T22:41:21.774Z,9.92
2018-05-04T22:43:50.082Z,10.06
2018-05-04T22:46:18.373Z,10.01
2018-05-04T22:48:45.791Z,10.06
2018-05-04T22:51:13.229Z,9.97
2018-05-04T22:53:42.565Z,9.80
2018-05-04T22:56:10.069Z,9.79
2018-05-04T22:58:37.497Z,10.09
2018-05-04T23:01:04.946Z,10.10
2018-05-04T23:03:32.372Z,10.10
2018-05-04T23:06:00.567Z,10.04
2018-05-04T23:08:28.158Z,9.89
2018-05-04T23:10:55.572Z,9.85
2018-05-04T23:13:23.009Z,9.76
2018-05-04T23:15:50.423Z,9.64
2018-05-04T23:18:17.865Z,9.70
2018-05-04T23:20:45.297Z,9.83
2018-05-04T23:23:13.749Z,9.82
2018-05-04T23:25:41.179Z,9.68
2018-05-04T23:28:09.536Z,9.69
2018-05-04T23:30:36.957Z,9.57
2018-05-04T23:33:04.401Z,9.57
2018-05-04T23:35:31.850Z,9.56
2018-05-04T23:37:59.304Z,9.51
2018-05-04T23:40:26.721Z,9.47
2018-05-04T23:42:54.161Z,9.59
2018-05-04T23:45:21.578Z,9.64
2018-05-04T23:47:49.022Z,9.60
2018-05-04T23:50:16.433Z,9.56
2018-05-04T23:52:43.881Z,9.50
2018-05-04T23:55:11.310Z,9.48
2018-05-04T23:57:38.714Z,9.42
